Time;durP1;ratioP1;P1;durP2;ratioP2;P2;SDS_P1;SDS_P2;PMS_P1;PMS_P2;Temp;Humidity;BMP_temperature;BMP_pressure;BME280_temperature;BME280_humidity;BME280_pressure;Samples;Min_cycle;Max_cycle;Signal;HPM_P1;HPM_P2
2022/01/26 00:00:42;;;;;;;5.72;4.32;;;;;;;;;;5075942;28;20231;-82
2022/01/26 00:06:03;;;;;;;11.50;8.93;;;;;;;;;;5075823;28;20346;-82
2022/01/26 00:08:30;;;;;;;6.03;5.35;;;;;;;;;;5076389;28;20204;-82
2022/01/26 00:10:59;;;;;;;7.90;6.95;;;;;;;;;;5075368;28;20315;-82
2022/01/26 00:13:26;;;;;;;9.35;7.15;;;;;;;;;;5076146;28;20204;-82
2022/01/26 00:15:54;;;;;;;12.25;8.98;;;;;;;;;;5075977;28;20193;-82
2022/01/26 00:18:23;;;;;;;13.27;8.80;;;;;;;;;;5075984;28;20231;-83
2022/01/26 00:20:55;;;;;;;11.20;8.27;;;;;;;;;;5076630;28;20236;-84
2022/01/26 00:23:49;;;;;;;10.85;8.80;;;;;;;;;;5076210;28;20197;-83
2022/01/26 00:26:27;;;;;;;8.85;7.22;;;;;;;;;;5075768;28;20217;-82
2022/01/26 00:29:08;;;;;;;12.02;7.47;;;;;;;;;;5075639;28;20196;-82
2022/01/26 00:40:12;;;;;;;11.48;8.25;;;;;;;;;;5053357;28;20220;-84
2022/01/26 00:42:43;;;;;;;10.73;7.35;;;;;;;;;;5079234;28;20208;-83
2022/01/26 00:45:11;;;;;;;13.18;7.78;;;;;;;;;;5075907;28;20216;-83
2022/01/26 00:47:39;;;;;;;9.18;6.40;;;;;;;;;;5075422;28;20673;-83
2022/01/26 00:50:11;;;;;;;9.35;6.03;;;;;;;;;;5075592;28;20236;-83
2022/01/26 00:52:40;;;;;;;5.53;4.38;;;;;;;;;;5075707;28;20215;-83
2022/01/26 00:55:12;;;;;;;6.30;4.22;;;;;;;;;;5076470;28;20668;-83
2022/01/26 00:57:41;;;;;;;7.95;5.65;;;;;;;;;;5075462;28;20220;-82
2022/01/26 01:00:12;;;;;;;5.40;4.00;;;;;;;;;;5074905;28;20648;-83
2022/01/26 01:02:39;;;;;;;9.05;5.22;;;;;;;;;;5074378;28;20615;-82
2022/01/26 01:05:15;;;;;;;7.28;6.15;;;;;;;;;;5075153;28;20603;-83
2022/01/26 01:07:44;;;;;;;7.22;5.68;;;;;;;;;;5074585;28;20220;-83
2022/01/26 01:10:13;;;;;;;9.05;7.50;;;;;;;;;;5074957;28;20268;-83
2022/01/26 01:12:43;;;;;;;7.82;6.35;;;;;;;;;;5074261;28;20204;-82
2022/01/26 01:15:12;;;;;;;8.00;5.65;;;;;;;;;;5074822;28;20296;-82
2022/01/26 01:17:44;;;;;;;10.13;7.22;;;;;;;;;;5074450;28;20223;-83
2022/01/26 01:20:26;;;;;;;11.27;7.40;;;;;;;;;;5074756;28;20728;-82
2022/01/26 01:23:11;;;;;;;10.00;6.78;;;;;;;;;;5073121;28;20273;-83
2022/01/26 01:28:46;;;;;;;9.38;7.38;;;;;;;;;;5068476;28;20196;-82
2022/01/26 01:31:17;;;;;;;9.10;5.90;;;;;;;;;;5073953;28;20727;-82
2022/01/26 01:33:47;;;;;;;8.73;7.05;;;;;;;;;;5073851;28;20205;-82
2022/01/26 01:36:16;;;;;;;10.70;6.63;;;;;;;;;;5074740;28;20197;-83
2022/01/26 01:38:44;;;;;;;10.35;7.95;;;;;;;;;;5074094;28;20640;-82
2022/01/26 01:41:11;;;;;;;7.93;6.80;;;;;;;;;;5073753;28;20208;-82
2022/01/26 01:43:41;;;;;;;10.52;8.07;;;;;;;;;;5073647;28;20205;-82
2022/01/26 01:46:08;;;;;;;10.45;7.03;;;;;;;;;;5073237;28;20224;-83
2022/01/26 01:48:36;;;;;;;6.72;5.50;;;;;;;;;;5073550;28;20201;-82
2022/01/26 01:51:08;;;;;;;10.70;7.25;;;;;;;;;;5073358;28;20213;-83
2022/01/26 01:53:39;;;;;;;7.45;5.32;;;;;;;;;;5073436;28;20288;-82
2022/01/26 01:56:08;;;;;;;10.30;5.50;;;;;;;;;;5074357;28;20204;-83
2022/01/26 01:58:36;;;;;;;6.70;4.82;;;;;;;;;;5073390;28;20300;-82
2022/01/26 02:01:05;;;;;;;5.70;4.13;;;;;;;;;;5074040;28;20209;-82
2022/01/26 02:03:32;;;;;;;7.00;4.97;;;;;;;;;;5073271;28;20687;-82
2022/01/26 02:06:00;;;;;;;4.53;3.70;;;;;;;;;;5073483;28;20577;-82
2022/01/26 02:08:28;;;;;;;6.53;4.68;;;;;;;;;;5073260;28;20255;-82
2022/01/26 02:10:55;;;;;;;4.50;3.92;;;;;;;;;;5073098;28;20273;-82
2022/01/26 02:13:26;;;;;;;5.88;4.80;;;;;;;;;;5072943;28;20208;-82
2022/01/26 02:16:01;;;;;;;8.35;6.03;;;;;;;;;;5073992;28;20193;-83
2022/01/26 02:18:46;;;;;;;4.93;3.80;;;;;;;;;;5073353;28;20193;-82
2022/01/26 02:21:42;;;;;;;4.63;4.22;;;;;;;;;;5073253;28;20211;-83
2022/01/26 02:55:08;;;;;;;4.60;4.18;;;;;;;;;;4993680;28;20226;-82
2022/01/26 02:57:50;;;;;;;5.82;4.55;;;;;;;;;;5054595;28;20246;-82
2022/01/26 03:00:23;;;;;;;5.35;4.05;;;;;;;;;;5076032;28;20248;-82
2022/01/26 03:02:55;;;;;;;5.25;3.53;;;;;;;;;;5076223;28;20205;-83
2022/01/26 03:05:32;;;;;;;3.83;3.45;;;;;;;;;;5076155;28;20672;-82
2022/01/26 03:08:03;;;;;;;4.07;3.65;;;;;;;;;;5075620;28;20592;-82
2022/01/26 03:10:40;;;;;;;3.85;3.45;;;;;;;;;;5076211;28;20217;-82
2022/01/26 03:13:12;;;;;;;4.20;3.08;;;;;;;;;;5075728;28;20201;-82
2022/01/26 03:15:43;;;;;;;4.25;3.70;;;;;;;;;;5075970;28;20240;-82
2022/01/26 03:21:04;;;;;;;10.38;6.00;;;;;;;;;;5076088;28;20302;-82
2022/01/26 03:29:25;;;;;;;6.50;5.00;;;;;;;;;;5075706;28;20695;-82
2022/01/26 03:32:37;;;;;;;4.28;3.13;;;;;;;;;;5075373;28;20222;-82
2022/01/26 03:34:55;;;;;;;6.57;4.95;;;;;;;;;;5075322;28;20238;-82
2022/01/26 03:37:27;;;;;;;6.47;5.68;;;;;;;;;;5076502;28;20284;-83
2022/01/26 03:39:55;;;;;;;6.57;4.78;;;;;;;;;;5075396;28;20229;-83
2022/01/26 03:42:23;;;;;;;5.45;4.53;;;;;;;;;;5075362;28;20200;-82
2022/01/26 03:44:50;;;;;;;5.90;4.13;;;;;;;;;;5074883;28;20208;-82
2022/01/26 03:47:18;;;;;;;12.30;6.65;;;;;;;;;;5075107;28;20225;-82
2022/01/26 03:49:45;;;;;;;12.57;8.13;;;;;;;;;;5074850;28;20225;-82
2022/01/26 03:52:12;;;;;;;10.40;6.53;;;;;;;;;;5075025;28;20262;-82
2022/01/26 03:54:40;;;;;;;6.55;5.10;;;;;;;;;;5075388;28;20201;-82
2022/01/26 03:57:07;;;;;;;9.95;6.93;;;;;;;;;;5074932;28;20201;-82
2022/01/26 03:59:36;;;;;;;13.60;8.13;;;;;;;;;;5074755;28;20225;-82
2022/01/26 04:02:04;;;;;;;13.15;7.68;;;;;;;;;;5074706;28;20198;-82
2022/01/26 04:04:37;;;;;;;8.85;5.70;;;;;;;;;;5074600;28;20197;-82
2022/01/26 04:07:05;;;;;;;9.38;6.18;;;;;;;;;;5075663;28;20235;-82
2022/01/26 04:09:32;;;;;;;6.95;6.07;;;;;;;;;;5074801;28;20227;-82
2022/01/26 04:12:00;;;;;;;5.32;4.10;;;;;;;;;;5074538;28;20200;-82
2022/01/26 04:14:31;;;;;;;11.30;6.25;;;;;;;;;;5074918;28;20213;-82
2022/01/26 04:16:59;;;;;;;16.73;9.85;;;;;;;;;;5074817;28;20205;-83
2022/01/26 04:19:29;;;;;;;12.32;8.20;;;;;;;;;;5074514;28;20300;-83
2022/01/26 04:22:07;;;;;;;8.85;5.65;;;;;;;;;;5074801;28;20197;-82
2022/01/26 04:24:38;;;;;;;7.40;4.95;;;;;;;;;;5075080;28;20216;-83
2022/01/26 04:27:15;;;;;;;7.53;4.97;;;;;;;;;;5074320;28;20197;-82
2022/01/26 04:29:43;;;;;;;10.70;6.72;;;;;;;;;;5073846;28;20609;-82
2022/01/26 04:32:13;;;;;;;8.30;5.90;;;;;;;;;;5074526;28;20926;-82
2022/01/26 04:34:41;;;;;;;10.65;5.82;;;;;;;;;;5074859;28;20197;-82
2022/01/26 04:37:16;;;;;;;7.43;5.22;;;;;;;;;;5074327;28;20577;-82
2022/01/26 04:39:49;;;;;;;7.93;5.30;;;;;;;;;;5074357;28;20239;-83
2022/01/26 04:42:21;;;;;;;9.18;5.90;;;;;;;;;;5074785;28;20205;-83
2022/01/26 04:44:54;;;;;;;11.93;6.35;;;;;;;;;;5074596;28;20208;-83
2022/01/26 04:47:23;;;;;;;13.77;8.10;;;;;;;;;;5074494;28;20197;-83
2022/01/26 04:49:50;;;;;;;11.20;7.28;;;;;;;;;;5074007;28;20281;-82
2022/01/26 04:52:17;;;;;;;9.50;7.30;;;;;;;;;;5073870;28;20212;-82
2022/01/26 04:54:45;;;;;;;6.28;4.65;;;;;;;;;;5073701;28;20260;-83
2022/01/26 04:57:12;;;;;;;5.70;4.85;;;;;;;;;;5073142;28;20730;-83
2022/01/26 04:59:39;;;;;;;10.63;6.78;;;;;;;;;;5073238;28;20221;-82
2022/01/26 05:02:07;;;;;;;15.90;8.55;;;;;;;;;;5073574;28;20209;-83
2022/01/26 05:04:35;;;;;;;13.77;9.15;;;;;;;;;;5073624;28;20212;-82
2022/01/26 05:07:03;;;;;;;11.02;7.30;;;;;;;;;;5073181;28;20200;-83
2022/01/26 05:09:30;;;;;;;9.50;5.75;;;;;;;;;;5073442;28;20221;-82
2022/01/26 05:11:58;;;;;;;13.10;7.22;;;;;;;;;;5073335;28;20212;-83
2022/01/26 05:14:25;;;;;;;9.20;6.82;;;;;;;;;;5073409;28;20239;-82
2022/01/26 05:16:52;;;;;;;17.45;9.57;;;;;;;;;;5073350;28;20200;-82
2022/01/26 05:19:19;;;;;;;12.50;7.88;;;;;;;;;;5073049;28;20224;-83
2022/01/26 05:21:48;;;;;;;15.07;8.00;;;;;;;;;;5073329;28;20211;-82
2022/01/26 05:24:15;;;;;;;11.02;7.38;;;;;;;;;;5073426;28;20197;-82
2022/01/26 05:26:43;;;;;;;10.15;7.80;;;;;;;;;;5073123;28;20208;-82
2022/01/26 05:29:10;;;;;;;12.70;7.13;;;;;;;;;;5073305;28;20600;-83
2022/01/26 05:31:37;;;;;;;12.82;7.47;;;;;;;;;;5072967;28;20201;-83
2022/01/26 05:34:06;;;;;;;13.45;6.82;;;;;;;;;;5073482;28;20205;-83
2022/01/26 05:36:33;;;;;;;9.77;5.65;;;;;;;;;;5073720;28;20208;-82
2022/01/26 05:39:02;;;;;;;10.05;6.85;;;;;;;;;;5073469;28;20274;-82
2022/01/26 05:41:29;;;;;;;16.13;9.00;;;;;;;;;;5072849;28;20561;-83
2022/01/26 05:43:56;;;;;;;14.45;7.45;;;;;;;;;;5072798;28;20201;-82
2022/01/26 05:46:30;;;;;;;9.98;7.50;;;;;;;;;;5075319;28;20204;-82
2022/01/26 05:48:57;;;;;;;9.88;6.50;;;;;;;;;;5073658;28;20232;-85
2022/01/26 05:51:26;;;;;;;13.77;6.45;;;;;;;;;;5073091;28;20205;-85
2022/01/26 05:53:53;;;;;;;12.35;8.25;;;;;;;;;;5075409;28;20197;-85
2022/01/26 05:56:22;;;;;;;11.52;7.13;;;;;;;;;;5075911;28;20264;-86
2022/01/26 05:58:49;;;;;;;10.40;7.10;;;;;;;;;;5076609;28;20201;-85
2022/01/26 06:01:19;;;;;;;14.18;9.20;;;;;;;;;;5075888;28;20586;-86
2022/01/26 06:03:46;;;;;;;15.57;9.63;;;;;;;;;;5075221;28;20201;-86
2022/01/26 06:06:15;;;;;;;14.43;8.82;;;;;;;;;;5074502;28;20203;-86
2022/01/26 06:08:42;;;;;;;15.57;8.35;;;;;;;;;;5074531;28;20220;-85
2022/01/26 06:11:10;;;;;;;17.60;9.23;;;;;;;;;;5078780;28;20227;-86
2022/01/26 06:13:38;;;;;;;16.80;8.98;;;;;;;;;;5078162;28;20201;-87
2022/01/26 06:16:06;;;;;;;13.85;8.60;;;;;;;;;;5078607;28;20200;-86
2022/01/26 06:18:33;;;;;;;12.90;8.45;;;;;;;;;;5078391;28;20611;-85
2022/01/26 06:21:00;;;;;;;7.82;6.07;;;;;;;;;;5078506;28;20221;-86
2022/01/26 06:23:28;;;;;;;9.15;6.13;;;;;;;;;;5077864;28;20287;-86
2022/01/26 06:25:57;;;;;;;9.25;6.68;;;;;;;;;;5078091;28;20278;-86
2022/01/26 06:28:27;;;;;;;14.15;8.75;;;;;;;;;;5078005;28;20204;-86
2022/01/26 06:30:59;;;;;;;11.07;7.15;;;;;;;;;;5078034;28;20248;-86
2022/01/26 06:33:27;;;;;;;7.25;5.18;;;;;;;;;;5077887;28;20209;-86
2022/01/26 06:35:57;;;;;;;6.18;3.92;;;;;;;;;;5077945;28;20688;-85
2022/01/26 06:38:25;;;;;;;9.55;6.82;;;;;;;;;;5078126;28;20204;-86
2022/01/26 06:40:52;;;;;;;8.38;5.70;;;;;;;;;;5077733;28;20247;-85
2022/01/26 06:43:21;;;;;;;12.35;8.43;;;;;;;;;;5077699;28;20197;-85
2022/01/26 06:45:52;;;;;;;12.65;7.88;;;;;;;;;;5077725;28;20208;-85
2022/01/26 06:48:46;;;;;;;16.15;8.50;;;;;;;;;;5077720;28;20204;-85
2022/01/26 06:51:14;;;;;;;17.83;10.88;;;;;;;;;;5077582;28;20204;-86
2022/01/26 06:53:42;;;;;;;20.88;10.60;;;;;;;;;;5077430;28;20250;-86
2022/01/26 06:56:09;;;;;;;13.02;8.50;;;;;;;;;;5076605;28;20204;-85
2022/01/26 06:58:36;;;;;;;15.73;9.23;;;;;;;;;;5076867;28;20633;-86
2022/01/26 07:01:04;;;;;;;13.77;8.27;;;;;;;;;;5076268;28;20590;-85
2022/01/26 07:04:18;;;;;;;15.38;10.23;;;;;;;;;;5074292;28;20640;-85
2022/01/26 07:06:46;;;;;;;14.13;10.43;;;;;;;;;;4963933;28;20630;-85
2022/01/26 07:09:13;;;;;;;14.32;8.02;;;;;;;;;;5042280;28;20236;-85
2022/01/26 07:11:40;;;;;;;7.18;5.10;;;;;;;;;;5055766;28;20198;-86
2022/01/26 07:14:10;;;;;;;6.80;5.63;;;;;;;;;;5055539;28;20209;-85
2022/01/26 07:22:09;;;;;;;15.10;9.15;;;;;;;;;;5055391;28;20200;-84
2022/01/26 07:24:36;;;;;;;12.15;9.23;;;;;;;;;;5056999;28;20285;-85
2022/01/26 07:27:05;;;;;;;11.82;8.30;;;;;;;;;;5056578;28;20209;-84
2022/01/26 07:29:32;;;;;;;10.80;8.02;;;;;;;;;;5056268;28;20221;-84
2022/01/26 07:32:00;;;;;;;8.20;5.95;;;;;;;;;;5055825;28;20233;-85
2022/01/26 07:34:29;;;;;;;12.85;8.90;;;;;;;;;;5071235;28;20292;-84
2022/01/26 07:37:01;;;;;;;18.75;10.15;;;;;;;;;;5076168;28;20200;-84
2022/01/26 07:39:41;;;;;;;16.00;11.98;;;;;;;;;;5075954;28;20320;-83
2022/01/26 07:42:10;;;;;;;17.00;11.40;;;;;;;;;;5075617;28;20201;-84
2022/01/26 07:44:37;;;;;;;19.48;14.20;;;;;;;;;;5075856;28;20232;-83
2022/01/26 07:47:05;;;;;;;12.75;8.57;;;;;;;;;;5075587;28;20204;-83
2022/01/26 07:49:34;;;;;;;15.73;11.38;;;;;;;;;;5075012;28;20682;-82
2022/01/26 07:52:02;;;;;;;16.80;11.55;;;;;;;;;;5074487;28;20576;-82
2022/01/26 07:54:32;;;;;;;16.33;10.68;;;;;;;;;;5075136;28;20204;-83
2022/01/26 07:57:00;;;;;;;13.68;10.50;;;;;;;;;;5075576;28;20242;-83
2022/01/26 07:59:28;;;;;;;16.98;10.73;;;;;;;;;;5075697;28;20223;-83
2022/01/26 08:01:55;;;;;;;9.85;7.22;;;;;;;;;;5074951;28;20224;-82
2022/01/26 08:04:22;;;;;;;9.80;8.20;;;;;;;;;;5075115;28;20274;-83
2022/01/26 08:06:51;;;;;;;15.27;9.07;;;;;;;;;;5074847;28;20255;-83
2022/01/26 08:09:19;;;;;;;14.90;10.32;;;;;;;;;;5074985;28;20221;-82
2022/01/26 08:11:46;;;;;;;11.40;8.60;;;;;;;;;;5074672;28;20220;-83
2022/01/26 08:14:13;;;;;;;15.40;11.40;;;;;;;;;;5075984;28;20209;-82
2022/01/26 08:16:40;;;;;;;17.92;11.93;;;;;;;;;;5074639;28;20570;-82
2022/01/26 08:19:08;;;;;;;11.75;8.45;;;;;;;;;;5074356;28;20232;-82
2022/01/26 08:21:35;;;;;;;10.27;7.60;;;;;;;;;;5075536;28;20209;-83
2022/01/26 08:24:12;;;;;;;11.70;8.52;;;;;;;;;;5074844;28;20198;-82
2022/01/26 08:26:43;;;;;;;9.73;6.95;;;;;;;;;;5074173;28;20201;-82
2022/01/26 08:29:16;;;;;;;10.15;7.50;;;;;;;;;;5074762;28;20235;-82
2022/01/26 08:31:43;;;;;;;14.38;8.93;;;;;;;;;;5073900;28;20228;-82
2022/01/26 08:34:11;;;;;;;8.80;7.15;;;;;;;;;;5074175;28;20250;-82
2022/01/26 08:36:38;;;;;;;10.77;7.80;;;;;;;;;;5074399;28;20254;-82
2022/01/26 08:39:07;;;;;;;12.10;8.60;;;;;;;;;;5074120;28;20228;-83
2022/01/26 08:41:35;;;;;;;10.07;8.02;;;;;;;;;;5074327;28;20201;-82
2022/01/26 08:44:02;;;;;;;8.18;5.82;;;;;;;;;;5074294;28;20220;-83
2022/01/26 08:46:30;;;;;;;10.70;7.38;;;;;;;;;;5074367;28;20258;-84
2022/01/26 08:48:57;;;;;;;11.50;7.65;;;;;;;;;;5074213;28;20225;-83
2022/01/26 08:51:25;;;;;;;17.35;9.50;;;;;;;;;;5074621;28;20224;-83
2022/01/26 08:53:52;;;;;;;13.05;10.02;;;;;;;;;;5075256;28;20590;-84
2022/01/26 08:56:21;;;;;;;10.43;8.07;;;;;;;;;;5074582;28;20252;-85
2022/01/26 08:58:48;;;;;;;13.90;10.15;;;;;;;;;;5075763;28;20196;-85
2022/01/26 09:01:15;;;;;;;10.27;7.78;;;;;;;;;;5074869;28;20209;-83
2022/01/26 09:03:43;;;;;;;10.18;7.47;;;;;;;;;;5075218;28;20258;-84
2022/01/26 09:06:11;;;;;;;11.75;8.57;;;;;;;;;;5075011;28;20593;-84
2022/01/26 09:08:40;;;;;;;11.95;6.70;;;;;;;;;;5074778;28;20204;-83
2022/01/26 09:11:08;;;;;;;11.63;9.15;;;;;;;;;;5074776;28;20220;-82
2022/01/26 09:13:37;;;;;;;12.18;8.40;;;;;;;;;;5073384;28;20681;-83
2022/01/26 09:16:08;;;;;;;8.80;7.20;;;;;;;;;;5073648;28;20635;-83
2022/01/26 09:18:45;;;;;;;8.82;7.05;;;;;;;;;;5073722;28;20204;-84
2022/01/26 09:21:12;;;;;;;13.82;9.55;;;;;;;;;;5073872;28;20235;-83
2022/01/26 09:23:40;;;;;;;13.82;9.88;;;;;;;;;;5073308;28;20201;-83
2022/01/26 09:26:07;;;;;;;16.77;10.80;;;;;;;;;;5073496;28;20205;-83
2022/01/26 09:28:35;;;;;;;16.67;11.55;;;;;;;;;;5073412;28;20200;-85
2022/01/26 09:31:03;;;;;;;22.63;14.27;;;;;;;;;;5073805;28;20230;-82
2022/01/26 09:33:30;;;;;;;24.52;14.10;;;;;;;;;;5073447;28;20205;-82
2022/01/26 09:35:58;;;;;;;24.77;15.00;;;;;;;;;;5073473;28;20208;-83
2022/01/26 09:38:28;;;;;;;24.88;16.58;;;;;;;;;;5072948;28;20209;-82
2022/01/26 09:40:56;;;;;;;21.60;14.60;;;;;;;;;;5072690;28;20217;-83
2022/01/26 09:43:23;;;;;;;19.80;13.88;;;;;;;;;;5072532;28;20630;-82
2022/01/26 09:45:52;;;;;;;19.38;13.60;;;;;;;;;;5073699;28;20673;-84
2022/01/26 09:48:19;;;;;;;20.48;13.75;;;;;;;;;;5072659;28;20701;-82
2022/01/26 09:50:53;;;;;;;18.05;10.95;;;;;;;;;;5072979;28;20229;-82
2022/01/26 09:53:26;;;;;;;14.90;9.98;;;;;;;;;;5073510;28;20262;-82
2022/01/26 09:55:54;;;;;;;19.20;14.00;;;;;;;;;;5073446;28;20203;-83
2022/01/26 09:58:22;;;;;;;22.67;14.65;;;;;;;;;;5072998;28;20258;-82
2022/01/26 10:01:00;;;;;;;16.80;12.63;;;;;;;;;;5073094;28;20224;-82
2022/01/26 10:03:32;;;;;;;24.17;17.73;;;;;;;;;;5073284;28;20204;-82
2022/01/26 10:06:00;;;;;;;23.48;15.35;;;;;;;;;;5072879;28;20205;-82
2022/01/26 10:08:56;;;;;;;28.42;16.70;;;;;;;;;;5073610;28;20254;-82
2022/01/26 10:17:24;;;;;;;29.85;19.48;;;;;;;;;;5073273;28;20200;-83
2022/01/26 10:20:00;;;;;;;28.70;17.20;;;;;;;;;;5074545;28;20217;-86
2022/01/26 10:22:29;;;;;;;34.88;20.55;;;;;;;;;;5074272;28;20204;-84
2022/01/26 10:25:09;;;;;;;26.30;17.02;;;;;;;;;;5074408;28;20200;-86
2022/01/26 10:27:39;;;;;;;32.47;19.63;;;;;;;;;;5075579;28;20201;-86
2022/01/26 10:30:09;;;;;;;25.42;16.23;;;;;;;;;;5074576;28;20228;-83
2022/01/26 10:32:41;;;;;;;22.45;14.15;;;;;;;;;;5075663;28;20232;-85
2022/01/26 10:35:09;;;;;;;33.25;20.67;;;;;;;;;;5055069;28;20263;-83
2022/01/26 10:37:41;;;;;;;22.63;16.27;;;;;;;;;;5056419;28;20197;-85
2022/01/26 10:40:13;;;;;;;27.40;18.45;;;;;;;;;;5056147;28;20636;-86
2022/01/26 10:42:42;;;;;;;34.08;20.45;;;;;;;;;;5054442;28;20196;-84
2022/01/26 10:45:14;;;;;;;24.48;15.50;;;;;;;;;;5056432;28;20233;-82
2022/01/26 10:47:47;;;;;;;32.88;21.33;;;;;;;;;;5054189;28;20239;-83
2022/01/26 10:50:44;;;;;;;33.13;22.25;;;;;;;;;;5053243;28;20233;-83
2022/01/26 10:53:16;;;;;;;34.70;19.65;;;;;;;;;;5053509;28;20639;-83
2022/01/26 10:55:45;;;;;;;35.70;22.63;;;;;;;;;;5054981;28;20201;-84
2022/01/26 10:58:16;;;;;;;40.67;23.65;;;;;;;;;;5057882;28;20572;-87
2022/01/26 11:00:44;;;;;;;33.05;23.10;;;;;;;;;;5056364;28;20252;-84
2022/01/26 11:03:13;;;;;;;37.45;22.67;;;;;;;;;;5061540;28;20207;-86
2022/01/26 11:05:40;;;;;;;29.25;18.02;;;;;;;;;;5077008;28;20200;-85
2022/01/26 11:08:27;;;;;;;36.13;22.83;;;;;;;;;;5077402;28;20201;-84
2022/01/26 11:11:17;;;;;;;39.28;22.80;;;;;;;;;;5078007;28;20598;-84
2022/01/26 11:14:02;;;;;;;46.38;26.70;;;;;;;;;;5077849;28;20610;-86
2022/01/26 11:16:36;;;;;;;45.97;29.40;;;;;;;;;;5077555;28;20193;-84
2022/01/26 11:19:15;;;;;;;54.63;32.13;;;;;;;;;;5077083;28;20244;-85
2022/01/26 11:21:43;;;;;;;58.33;32.30;;;;;;;;;;5077723;28;20208;-85
2022/01/26 11:24:19;;;;;;;55.58;34.47;;;;;;;;;;5079037;28;20201;-85
2022/01/26 11:27:14;;;;;;;52.90;30.50;;;;;;;;;;5079301;28;20283;-84
2022/01/26 11:29:57;;;;;;;65.00;37.25;;;;;;;;;;5042103;28;20231;-87
2022/01/26 11:32:37;;;;;;;53.20;30.65;;;;;;;;;;5077992;28;20308;-84
2022/01/26 11:35:12;;;;;;;41.45;25.85;;;;;;;;;;5076979;28;20193;-86
2022/01/26 11:37:46;;;;;;;60.47;37.15;;;;;;;;;;5076805;28;20215;-85
2022/01/26 11:46:08;;;;;;;70.50;39.55;;;;;;;;;;5077818;28;20204;-87
2022/01/26 11:48:50;;;;;;;65.93;35.45;;;;;;;;;;5076077;28;20536;-87
2022/01/26 11:51:19;;;;;;;56.80;33.05;;;;;;;;;;5076130;28;20232;-86
2022/01/26 11:53:46;;;;;;;63.58;36.47;;;;;;;;;;5076747;28;20680;-86
2022/01/26 11:56:20;;;;;;;52.72;28.13;;;;;;;;;;5076698;28;20199;-86
2022/01/26 11:58:50;;;;;;;61.83;37.80;;;;;;;;;;5077317;28;20743;-86
2022/01/26 12:01:22;;;;;;;73.70;40.03;;;;;;;;;;5077817;28;20228;-86
2022/01/26 12:03:59;;;;;;;67.20;37.17;;;;;;;;;;5076426;28;20215;-86
2022/01/26 12:06:31;;;;;;;40.58;26.50;;;;;;;;;;5076112;28;20738;-86
2022/01/26 12:09:00;;;;;;;64.90;37.83;;;;;;;;;;5076847;28;20225;-86
2022/01/26 12:11:29;;;;;;;43.45;26.55;;;;;;;;;;5076931;28;20201;-86
2022/01/26 12:14:00;;;;;;;59.75;34.28;;;;;;;;;;5076600;28;20217;-87
2022/01/26 12:16:36;;;;;;;60.72;35.47;;;;;;;;;;5077811;28;20723;-87
2022/01/26 12:19:23;;;;;;;45.85;27.60;;;;;;;;;;5077537;28;20304;-86
2022/01/26 12:36:03;;;;;;;55.25;32.97;;;;;;;;;;5036687;28;20767;-87
2022/01/26 12:38:41;;;;;;;50.17;29.25;;;;;;;;;;5075952;28;20201;-87
2022/01/26 12:41:19;;;;;;;51.40;28.83;;;;;;;;;;5074976;28;20196;-87
2022/01/26 12:44:03;;;;;;;36.85;22.90;;;;;;;;;;5075380;28;20254;-89
2022/01/26 12:46:37;;;;;;;55.78;32.03;;;;;;;;;;5076999;28;20258;-87
2022/01/26 12:52:23;;;;;;;41.83;23.73;;;;;;;;;;5070657;28;20212;-86
2022/01/26 12:54:52;;;;;;;45.33;27.50;;;;;;;;;;5075531;28;20705;-87
2022/01/26 12:57:32;;;;;;;38.53;23.23;;;;;;;;;;5075122;28;20201;-86
2022/01/26 13:00:48;;;;;;;39.50;23.63;;;;;;;;;;5075229;28;20254;-87
2022/01/26 13:03:23;;;;;;;39.58;22.60;;;;;;;;;;5073794;28;20212;-87
2022/01/26 13:06:00;;;;;;;27.00;16.60;;;;;;;;;;5074587;28;20256;-86
2022/01/26 13:08:28;;;;;;;30.98;20.08;;;;;;;;;;5074227;28;20204;-87
2022/01/26 13:11:04;;;;;;;29.33;18.08;;;;;;;;;;5074479;28;20902;-87
2022/01/26 13:13:36;;;;;;;42.75;22.77;;;;;;;;;;5075597;28;20310;-86
2022/01/26 13:16:20;;;;;;;30.92;19.80;;;;;;;;;;5074739;28;20192;-86
2022/01/26 13:22:03;;;;;;;36.08;20.25;;;;;;;;;;5070768;28;20203;-87
2022/01/26 13:24:53;;;;;;;41.80;23.75;;;;;;;;;;5074914;28;20197;-87
2022/01/26 13:27:35;;;;;;;31.55;19.17;;;;;;;;;;5074621;28;20208;-86
2022/01/26 13:30:21;;;;;;;33.72;20.33;;;;;;;;;;5074123;28;20308;-86
2022/01/26 13:33:29;;;;;;;40.88;22.70;;;;;;;;;;5074340;28;20229;-86
2022/01/26 13:36:12;;;;;;;26.77;16.25;;;;;;;;;;5074141;28;20201;-86
2022/01/26 13:38:54;;;;;;;26.52;16.38;;;;;;;;;;5073614;28;20231;-86
2022/01/26 13:41:33;;;;;;;26.25;15.20;;;;;;;;;;5068321;28;20224;-86
2022/01/26 13:49:45;;;;;;;27.90;17.85;;;;;;;;;;5073634;28;20227;-86
2022/01/26 13:52:34;;;;;;;32.95;21.48;;;;;;;;;;5070401;28;20656;-87
2022/01/26 13:58:16;;;;;;;41.65;23.92;;;;;;;;;;5072598;28;20199;-87
2022/01/26 14:00:54;;;;;;;42.47;24.02;;;;;;;;;;5074217;28;20224;-86
2022/01/26 14:03:24;;;;;;;35.20;21.40;;;;;;;;;;5068723;28;20200;-86
2022/01/26 14:05:51;;;;;;;50.15;25.40;;;;;;;;;;5075233;28;20644;-85
2022/01/26 14:08:19;;;;;;;32.00;19.85;;;;;;;;;;5075935;28;20203;-86
2022/01/26 14:10:48;;;;;;;46.63;29.00;;;;;;;;;;5075889;28;20708;-86
2022/01/26 14:13:20;;;;;;;33.45;19.60;;;;;;;;;;5072452;28;20220;-85
2022/01/26 14:15:51;;;;;;;23.92;15.68;;;;;;;;;;5076794;28;20560;-86
2022/01/26 14:26:52;;;;;;;23.73;13.93;;;;;;;;;;5046286;28;20683;-86
2022/01/26 14:32:34;;;;;;;25.60;16.73;;;;;;;;;;5078101;28;20208;-87
2022/01/26 14:35:40;;;;;;;30.45;17.42;;;;;;;;;;5080043;28;20720;-85
2022/01/26 14:50:54;;;;;;;22.25;15.63;;;;;;;;;;5080056;28;20219;-85
2022/01/26 14:55:12;;;;;;;27.60;17.95;;;;;;;;;;5079265;28;20224;-85
2022/01/26 15:00:50;;;;;;;22.73;14.45;;;;;;;;;;5079168;28;20688;-86
2022/01/26 15:09:10;;;;;;;25.88;15.80;;;;;;;;;;5058534;28;20211;-86
2022/01/26 15:21:09;;;;;;;18.02;11.48;;;;;;;;;;5062057;28;20230;-84
2022/01/26 15:32:06;;;;;;;19.02;13.70;;;;;;;;;;5019604;28;20562;-85
2022/01/26 15:42:50;;;;;;;20.05;12.80;;;;;;;;;;5078573;28;20196;-84
2022/01/26 15:50:54;;;;;;;22.95;12.45;;;;;;;;;;5080905;28;20696;-85
2022/01/26 15:57:18;;;;;;;23.92;14.38;;;;;;;;;;5080560;28;20643;-84
2022/01/26 15:59:18;;;;;;;13.73;8.88;;;;;;;;;;5080749;28;20629;-82
2022/01/26 16:04:45;;;;;;;17.15;11.98;;;;;;;;;;5082138;28;20200;-85
2022/01/26 16:07:19;;;;;;;19.50;13.40;;;;;;;;;;5082665;28;20205;-85
2022/01/26 16:12:43;;;;;;;20.70;13.55;;;;;;;;;;5079823;28;20285;-84
2022/01/26 16:21:01;;;;;;;29.35;17.45;;;;;;;;;;5079808;28;20725;-83
2022/01/26 16:26:27;;;;;;;24.58;15.57;;;;;;;;;;5077051;28;20247;-86
2022/01/26 17:24:42;;;;;;;14.48;11.57;;;;;;;;;;5082990;28;20236;-85
2022/01/26 17:46:46;;;;;;;25.00;16.60;;;;;;;;;;5081689;28;20196;-85
2022/01/26 18:17:05;;;;;;;22.98;14.95;;;;;;;;;;5081810;28;20192;-85
2022/01/26 18:38:43;;;;;;;13.18;9.00;;;;;;;;;;5081736;28;20204;-84
2022/01/26 18:50:01;;;;;;;17.25;10.25;;;;;;;;;;5081064;28;20211;-85
2022/01/26 18:52:28;;;;;;;20.10;13.45;;;;;;;;;;5080184;28;20216;-84
2022/01/26 18:54:55;;;;;;;15.10;9.95;;;;;;;;;;5080939;28;20228;-83
2022/01/26 18:57:24;;;;;;;16.58;10.50;;;;;;;;;;5080577;28;20204;-85
2022/01/26 18:59:51;;;;;;;13.23;9.13;;;;;;;;;;5082466;28;20221;-84
2022/01/26 19:02:22;;;;;;;18.05;11.75;;;;;;;;;;5080642;28;20205;-83
2022/01/26 19:04:49;;;;;;;17.02;11.98;;;;;;;;;;5081108;28;20216;-83
2022/01/26 19:07:17;;;;;;;21.38;13.00;;;;;;;;;;5081739;28;20201;-84
2022/01/26 19:09:48;;;;;;;15.40;10.93;;;;;;;;;;5081554;28;20256;-84
2022/01/26 19:12:17;;;;;;;13.23;8.90;;;;;;;;;;5081578;28;20628;-83
2022/01/26 19:14:53;;;;;;;14.15;9.45;;;;;;;;;;5081505;28;20212;-84
2022/01/26 19:17:25;;;;;;;13.77;9.07;;;;;;;;;;5081842;28;20204;-84
2022/01/26 19:20:04;;;;;;;12.90;8.88;;;;;;;;;;5083551;28;20256;-85
2022/01/26 19:22:59;;;;;;;12.57;7.97;;;;;;;;;;5081791;28;20614;-84
2022/01/26 19:25:31;;;;;;;14.07;10.32;;;;;;;;;;5081265;28;20676;-85
2022/01/26 19:28:07;;;;;;;16.23;10.60;;;;;;;;;;5081263;28;20259;-85
2022/01/26 19:42:44;;;;;;;14.73;10.10;;;;;;;;;;5079947;28;20680;-84
2022/01/26 19:45:04;;;;;;;10.30;8.02;;;;;;;;;;5079806;28;20573;-83
2022/01/26 19:53:05;;;;;;;9.30;6.50;;;;;;;;;;5061373;28;20255;-85
2022/01/26 19:55:34;;;;;;;10.85;7.10;;;;;;;;;;5060849;28;20228;-85
2022/01/26 19:58:03;;;;;;;11.18;8.15;;;;;;;;;;5060449;28;20201;-85
2022/01/26 20:00:31;;;;;;;14.50;9.13;;;;;;;;;;5059886;28;20244;-84
2022/01/26 20:03:00;;;;;;;17.85;11.57;;;;;;;;;;5059577;28;20214;-81
2022/01/26 20:05:32;;;;;;;14.18;9.63;;;;;;;;;;5075181;28;20262;-81
2022/01/26 20:08:06;;;;;;;15.27;8.55;;;;;;;;;;5075396;28;20296;-80
2022/01/26 20:10:35;;;;;;;13.75;10.02;;;;;;;;;;5075523;28;20266;-81
2022/01/26 20:13:05;;;;;;;13.38;9.25;;;;;;;;;;5074989;28;20283;-81
2022/01/26 20:15:33;;;;;;;14.52;9.07;;;;;;;;;;5074640;28;20205;-80
2022/01/26 20:18:02;;;;;;;12.82;9.63;;;;;;;;;;5074901;28;20196;-81
2022/01/26 20:20:29;;;;;;;16.42;9.13;;;;;;;;;;5074217;28;20229;-79
2022/01/26 20:22:56;;;;;;;10.50;7.13;;;;;;;;;;5073841;28;20227;-80
2022/01/26 20:25:24;;;;;;;8.55;5.80;;;;;;;;;;5074448;28;20189;-79
2022/01/26 20:27:51;;;;;;;8.70;6.65;;;;;;;;;;5074428;28;20196;-79